Newton Highlands, Massachusetts
Current Conditions -  °F | °C
As of 7:53 PM on Saturday 25 Oct 2014 (Local Time) from KOWD Reporting Station
Few Clouds Few Clouds  
Wind Chill: 48°   Ceiling: Unl
Heat Index: 48°   Visibility: 10mi
Dew Point: 44°   Wind: 0mph
Humidity: 86%   Direction: NA
Pressure: 29.58"   Gusts: NA
Location:  42.32°N, 71.21°W
Report Text: KOWD 252353Z 00000KT 10SM FEW100 09/07 A2958 RMK AO2 SLP018 T00890067 10183 20089 50001
Loading
Personal Weather Stations






























Interactive Weather Map
Tropical Storm Tracking
New forecast layout! Learn more

10-Day Weather Forecast

Advertisements
Track Severe Weather on mobile